sensor_id;sensor_type;location;lat;lon;timestamp;temperature;humidity
5901;DHT22;2976;49.764;9.796;2022-11-14T00:00:50;2.20;99.90
5901;DHT22;2976;49.764;9.796;2022-11-14T00:03:16;2.20;99.90
5901;DHT22;2976;49.764;9.796;2022-11-14T00:05:43;2.20;99.90
5901;DHT22;2976;49.764;9.796;2022-11-14T00:08:22;2.10;99.90
5901;DHT22;2976;49.764;9.796;2022-11-14T00:10:49;2.10;99.90
5901;DHT22;2976;49.764;9.796;2022-11-14T00:13:16;2.20;99.90
5901;DHT22;2976;49.764;9.796;2022-11-14T00:15:42;2.20;99.90
5901;DHT22;2976;49.764;9.796;2022-11-14T00:18:08;2.20;99.90
5901;DHT22;2976;49.764;9.796;2022-11-14T00:20:34;2.30;99.90
5901;DHT22;2976;49.764;9.796;2022-11-14T00:22:59;2.30;99.90
5901;DHT22;2976;49.764;9.796;2022-11-14T00:25:25;2.30;99.90
5901;DHT22;2976;49.764;9.796;2022-11-14T00:27:50;2.30;99.90
5901;DHT22;2976;49.764;9.796;2022-11-14T00:30:16;2.20;99.90
5901;DHT22;2976;49.764;9.796;2022-11-14T00:32:41;2.20;99.90
5901;DHT22;2976;49.764;9.796;2022-11-14T00:35:07;2.30;99.90
5901;DHT22;2976;49.764;9.796;2022-11-14T00:37:36;2.30;99.90
5901;DHT22;2976;49.764;9.796;2022-11-14T00:40:02;2.20;99.90
5901;DHT22;2976;49.764;9.796;2022-11-14T00:42:27;2.20;99.90
5901;DHT22;2976;49.764;9.796;2022-11-14T00:44:53;2.20;99.90
5901;DHT22;2976;49.764;9.796;2022-11-14T00:47:18;2.10;99.90
5901;DHT22;2976;49.764;9.796;2022-11-14T00:49:44;2.10;99.90
5901;DHT22;2976;49.764;9.796;2022-11-14T00:52:09;2.20;99.90
5901;DHT22;2976;49.764;9.796;2022-11-14T00:54:35;2.20;99.90
5901;DHT22;2976;49.764;9.796;2022-11-14T00:57:00;2.30;99.90
5901;DHT22;2976;49.764;9.796;2022-11-14T00:59:26;2.30;99.90
5901;DHT22;2976;49.764;9.796;2022-11-14T01:01:51;2.30;99.90
5901;DHT22;2976;49.764;9.796;2022-11-14T01:04:17;2.30;99.90
5901;DHT22;2976;49.764;9.796;2022-11-14T01:06:42;2.20;99.90
5901;DHT22;2976;49.764;9.796;2022-11-14T01:09:08;2.20;99.90
5901;DHT22;2976;49.764;9.796;2022-11-14T01:11:34;2.20;99.90
5901;DHT22;2976;49.764;9.796;2022-11-14T01:13:59;2.20;99.90
5901;DHT22;2976;49.764;9.796;2022-11-14T01:16:25;2.30;99.90
5901;DHT22;2976;49.764;9.796;2022-11-14T01:18:50;2.30;99.90
5901;DHT22;2976;49.764;9.796;2022-11-14T01:21:16;2.40;99.90
5901;DHT22;2976;49.764;9.796;2022-11-14T01:23:41;2.40;99.90
5901;DHT22;2976;49.764;9.796;2022-11-14T01:26:12;2.40;99.90
5901;DHT22;2976;49.764;9.796;2022-11-14T01:28:38;2.50;99.90
5901;DHT22;2976;49.764;9.796;2022-11-14T01:31:15;2.40;99.90
5901;DHT22;2976;49.764;9.796;2022-11-14T01:33:41;2.40;99.90
5901;DHT22;2976;49.764;9.796;2022-11-14T01:36:08;2.40;99.90
5901;DHT22;2976;49.764;9.796;2022-11-14T01:38:35;2.40;99.90
5901;DHT22;2976;49.764;9.796;2022-11-14T01:41:01;2.40;99.90
5901;DHT22;2976;49.764;9.796;2022-11-14T01:43:33;2.40;99.90
5901;DHT22;2976;49.764;9.796;2022-11-14T01:46:04;2.40;99.90
5901;DHT22;2976;49.764;9.796;2022-11-14T01:48:46;2.40;99.90
5901;DHT22;2976;49.764;9.796;2022-11-14T01:53:55;2.40;99.90
5901;DHT22;2976;49.764;9.796;2022-11-14T01:56:36;2.30;99.90
5901;DHT22;2976;49.764;9.796;2022-11-14T01:59:14;2.20;99.90
5901;DHT22;2976;49.764;9.796;2022-11-14T02:01:47;2.20;99.90
5901;DHT22;2976;49.764;9.796;2022-11-14T02:04:18;2.20;99.90
5901;DHT22;2976;49.764;9.796;2022-11-14T02:06:45;2.20;99.90
5901;DHT22;2976;49.764;9.796;2022-11-14T02:09:11;2.10;99.90
5901;DHT22;2976;49.764;9.796;2022-11-14T02:11:41;2.10;99.90
5901;DHT22;2976;49.764;9.796;2022-11-14T02:14:07;2.10;99.90
5901;DHT22;2976;49.764;9.796;2022-11-14T02:16:34;2.10;99.90
5901;DHT22;2976;49.764;9.796;2022-11-14T02:18:59;2.00;99.90
5901;DHT22;2976;49.764;9.796;2022-11-14T02:21:25;1.90;99.90
5901;DHT22;2976;49.764;9.796;2022-11-14T02:23:50;1.90;99.90
5901;DHT22;2976;49.764;9.796;2022-11-14T02:26:20;1.80;99.90
5901;DHT22;2976;49.764;9.796;2022-11-14T02:28:46;1.80;99.90
5901;DHT22;2976;49.764;9.796;2022-11-14T02:31:13;1.70;99.90
5901;DHT22;2976;49.764;9.796;2022-11-14T02:33:38;1.70;99.90
5901;DHT22;2976;49.764;9.796;2022-11-14T02:36:04;1.60;99.90
5901;DHT22;2976;49.764;9.796;2022-11-14T02:38:30;1.60;99.90
5901;DHT22;2976;49.764;9.796;2022-11-14T02:40:55;1.50;99.90
5901;DHT22;2976;49.764;9.796;2022-11-14T02:43:23;1.50;99.90
5901;DHT22;2976;49.764;9.796;2022-11-14T02:45:48;1.50;99.90
5901;DHT22;2976;49.764;9.796;2022-11-14T02:48:14;1.50;99.90
5901;DHT22;2976;49.764;9.796;2022-11-14T02:50:39;1.50;99.90
5901;DHT22;2976;49.764;9.796;2022-11-14T02:53:05;1.60;99.90
5901;DHT22;2976;49.764;9.796;2022-11-14T02:55:31;1.60;99.90
5901;DHT22;2976;49.764;9.796;2022-11-14T02:57:56;1.60;99.90
5901;DHT22;2976;49.764;9.796;2022-11-14T03:00:22;1.70;99.90
5901;DHT22;2976;49.764;9.796;2022-11-14T03:02:47;1.70;99.90
5901;DHT22;2976;49.764;9.796;2022-11-14T03:05:13;1.80;99.90
5901;DHT22;2976;49.764;9.796;2022-11-14T03:07:38;1.70;99.90
5901;DHT22;2976;49.764;9.796;2022-11-14T03:10:05;1.70;99.90
5901;DHT22;2976;49.764;9.796;2022-11-14T03:12:30;1.60;99.90
5901;DHT22;2976;49.764;9.796;2022-11-14T03:14:56;1.50;99.90
5901;DHT22;2976;49.764;9.796;2022-11-14T03:17:21;1.50;99.90
5901;DHT22;2976;49.764;9.796;2022-11-14T03:19:49;1.50;99.90
5901;DHT22;2976;49.764;9.796;2022-11-14T03:22:14;1.60;99.90
5901;DHT22;2976;49.764;9.796;2022-11-14T03:24:40;1.60;99.90
5901;DHT22;2976;49.764;9.796;2022-11-14T03:27:06;1.50;99.90
5901;DHT22;2976;49.764;9.796;2022-11-14T03:29:31;1.50;99.90
5901;DHT22;2976;49.764;9.796;2022-11-14T03:31:57;1.40;99.90
5901;DHT22;2976;49.764;9.796;2022-11-14T03:34:22;1.40;99.90
5901;DHT22;2976;49.764;9.796;2022-11-14T03:36:48;1.40;99.90
5901;DHT22;2976;49.764;9.796;2022-11-14T03:39:13;1.40;99.90
5901;DHT22;2976;49.764;9.796;2022-11-14T03:41:39;1.30;99.90
5901;DHT22;2976;49.764;9.796;2022-11-14T03:44:04;1.30;99.90
5901;DHT22;2976;49.764;9.796;2022-11-14T03:46:30;1.20;99.90
5901;DHT22;2976;49.764;9.796;2022-11-14T03:48:55;1.00;99.90
5901;DHT22;2976;49.764;9.796;2022-11-14T03:51:21;0.90;99.90
5901;DHT22;2976;49.764;9.796;2022-11-14T03:53:46;0.80;99.90
5901;DHT22;2976;49.764;9.796;2022-11-14T03:56:12;0.80;99.90
5901;DHT22;2976;49.764;9.796;2022-11-14T03:58:37;0.80;99.90
5901;DHT22;2976;49.764;9.796;2022-11-14T04:01:03;0.90;99.90
5901;DHT22;2976;49.764;9.796;2022-11-14T04:03:29;1.10;99.90
5901;DHT22;2976;49.764;9.796;2022-11-14T04:05:54;1.30;99.90
5901;DHT22;2976;49.764;9.796;2022-11-14T04:08:20;1.60;99.90
5901;DHT22;2976;49.764;9.796;2022-11-14T04:10:47;1.90;99.90
5901;DHT22;2976;49.764;9.796;2022-11-14T04:13:13;2.10;99.90
5901;DHT22;2976;49.764;9.796;2022-11-14T04:15:39;2.30;99.90
5901;DHT22;2976;49.764;9.796;2022-11-14T04:18:04;2.40;99.90
5901;DHT22;2976;49.764;9.796;2022-11-14T04:20:30;2.50;99.90
5901;DHT22;2976;49.764;9.796;2022-11-14T04:22:55;2.70;99.90
5901;DHT22;2976;49.764;9.796;2022-11-14T04:25:21;2.80;99.90
5901;DHT22;2976;49.764;9.796;2022-11-14T04:27:46;2.80;99.90
5901;DHT22;2976;49.764;9.796;2022-11-14T04:30:12;2.90;99.90
5901;DHT22;2976;49.764;9.796;2022-11-14T04:32:37;2.90;99.90
5901;DHT22;2976;49.764;9.796;2022-11-14T04:35:03;3.00;99.90
5901;DHT22;2976;49.764;9.796;2022-11-14T04:37:29;3.00;99.90
5901;DHT22;2976;49.764;9.796;2022-11-14T04:39:54;3.00;99.90
5901;DHT22;2976;49.764;9.796;2022-11-14T04:42:23;3.00;99.90
5901;DHT22;2976;49.764;9.796;2022-11-14T04:44:50;3.10;99.90
5901;DHT22;2976;49.764;9.796;2022-11-14T04:47:15;3.10;99.90
5901;DHT22;2976;49.764;9.796;2022-11-14T04:49:41;3.10;99.90
5901;DHT22;2976;49.764;9.796;2022-11-14T04:52:06;3.20;99.90
5901;DHT22;2976;49.764;9.796;2022-11-14T04:54:32;3.20;99.90
5901;DHT22;2976;49.764;9.796;2022-11-14T04:56:58;3.20;99.90
5901;DHT22;2976;49.764;9.796;2022-11-14T04:59:23;3.20;99.90
5901;DHT22;2976;49.764;9.796;2022-11-14T05:01:49;3.30;99.90
5901;DHT22;2976;49.764;9.796;2022-11-14T05:04:14;3.30;99.90
5901;DHT22;2976;49.764;9.796;2022-11-14T05:06:40;3.30;99.90
5901;DHT22;2976;49.764;9.796;2022-11-14T05:09:05;3.30;99.90
5901;DHT22;2976;49.764;9.796;2022-11-14T05:11:31;3.40;99.90
5901;DHT22;2976;49.764;9.796;2022-11-14T05:13:56;3.40;99.90
5901;DHT22;2976;49.764;9.796;2022-11-14T05:16:22;3.40;99.90
5901;DHT22;2976;49.764;9.796;2022-11-14T05:18:47;3.50;99.90
5901;DHT22;2976;49.764;9.796;2022-11-14T05:21:14;3.50;99.90
5901;DHT22;2976;49.764;9.796;2022-11-14T05:23:40;3.50;99.90
5901;DHT22;2976;49.764;9.796;2022-11-14T05:26:08;3.50;99.90
5901;DHT22;2976;49.764;9.796;2022-11-14T05:28:34;3.50;99.90
5901;DHT22;2976;49.764;9.796;2022-11-14T05:31:01;3.60;99.90
5901;DHT22;2976;49.764;9.796;2022-11-14T05:33:27;3.60;99.90
5901;DHT22;2976;49.764;9.796;2022-11-14T05:35:53;3.60;99.90
5901;DHT22;2976;49.764;9.796;2022-11-14T05:38:18;3.60;99.90
5901;DHT22;2976;49.764;9.796;2022-11-14T05:40:44;3.60;99.90
5901;DHT22;2976;49.764;9.796;2022-11-14T05:43:09;3.60;99.90
5901;DHT22;2976;49.764;9.796;2022-11-14T05:45:35;3.60;99.90
5901;DHT22;2976;49.764;9.796;2022-11-14T05:48:00;3.70;99.90
5901;DHT22;2976;49.764;9.796;2022-11-14T05:50:26;3.80;99.90
5901;DHT22;2976;49.764;9.796;2022-11-14T05:52:51;3.80;99.90
5901;DHT22;2976;49.764;9.796;2022-11-14T05:55:17;3.80;99.90
5901;DHT22;2976;49.764;9.796;2022-11-14T05:57:42;3.80;99.90
5901;DHT22;2976;49.764;9.796;2022-11-14T06:00:08;3.80;99.90
5901;DHT22;2976;49.764;9.796;2022-11-14T06:02:34;3.90;99.90
5901;DHT22;2976;49.764;9.796;2022-11-14T06:04:59;3.90;99.90
5901;DHT22;2976;49.764;9.796;2022-11-14T06:07:25;3.90;99.90
5901;DHT22;2976;49.764;9.796;2022-11-14T06:09:50;3.90;99.90
5901;DHT22;2976;49.764;9.796;2022-11-14T06:12:16;3.90;99.90
5901;DHT22;2976;49.764;9.796;2022-11-14T06:14:41;3.90;99.90
5901;DHT22;2976;49.764;9.796;2022-11-14T06:17:07;3.90;99.90
5901;DHT22;2976;49.764;9.796;2022-11-14T06:19:33;4.00;99.90
5901;DHT22;2976;49.764;9.796;2022-11-14T06:21:58;4.00;99.90
5901;DHT22;2976;49.764;9.796;2022-11-14T06:24:24;4.00;99.90
5901;DHT22;2976;49.764;9.796;2022-11-14T06:26:49;4.00;99.90
5901;DHT22;2976;49.764;9.796;2022-11-14T06:29:15;4.00;99.90
5901;DHT22;2976;49.764;9.796;2022-11-14T06:31:40;4.00;99.90
5901;DHT22;2976;49.764;9.796;2022-11-14T06:34:06;4.10;99.90
5901;DHT22;2976;49.764;9.796;2022-11-14T06:36:31;4.10;99.90
5901;DHT22;2976;49.764;9.796;2022-11-14T06:38:57;4.00;99.90
5901;DHT22;2976;49.764;9.796;2022-11-14T06:41:22;4.00;99.90
5901;DHT22;2976;49.764;9.796;2022-11-14T06:43:50;4.00;99.90
5901;DHT22;2976;49.764;9.796;2022-11-14T06:46:19;4.00;99.90
5901;DHT22;2976;49.764;9.796;2022-11-14T06:48:46;4.00;99.90
5901;DHT22;2976;49.764;9.796;2022-11-14T06:51:13;4.10;99.90
5901;DHT22;2976;49.764;9.796;2022-11-14T06:53:39;4.10;99.90
5901;DHT22;2976;49.764;9.796;2022-11-14T06:56:10;4.10;99.90
5901;DHT22;2976;49.764;9.796;2022-11-14T06:58:38;4.10;99.90
5901;DHT22;2976;49.764;9.796;2022-11-14T07:01:07;4.10;99.90
5901;DHT22;2976;49.764;9.796;2022-11-14T07:03:33;4.10;99.90
5901;DHT22;2976;49.764;9.796;2022-11-14T07:06:03;4.10;99.90
5901;DHT22;2976;49.764;9.796;2022-11-14T07:08:29;4.20;99.90
5901;DHT22;2976;49.764;9.796;2022-11-14T07:11:06;4.10;99.90
5901;DHT22;2976;49.764;9.796;2022-11-14T07:13:33;4.10;99.90
5901;DHT22;2976;49.764;9.796;2022-11-14T07:15:59;4.10;99.90
5901;DHT22;2976;49.764;9.796;2022-11-14T07:18:25;4.20;99.90
5901;DHT22;2976;49.764;9.796;2022-11-14T07:21:02;4.20;99.90
5901;DHT22;2976;49.764;9.796;2022-11-14T07:23:29;4.30;99.90
5901;DHT22;2976;49.764;9.796;2022-11-14T07:25:54;4.30;99.90
5901;DHT22;2976;49.764;9.796;2022-11-14T07:28:20;4.30;99.90
5901;DHT22;2976;49.764;9.796;2022-11-14T07:30:46;4.30;99.90
5901;DHT22;2976;49.764;9.796;2022-11-14T07:33:11;4.30;99.90
5901;DHT22;2976;49.764;9.796;2022-11-14T07:35:40;4.40;99.90
5901;DHT22;2976;49.764;9.796;2022-11-14T07:38:06;4.40;99.90
5901;DHT22;2976;49.764;9.796;2022-11-14T07:40:31;4.50;99.90
5901;DHT22;2976;49.764;9.796;2022-11-14T07:42:58;4.50;99.90
5901;DHT22;2976;49.764;9.796;2022-11-14T07:45:25;4.60;99.90
5901;DHT22;2976;49.764;9.796;2022-11-14T07:47:57;4.50;99.90
5901;DHT22;2976;49.764;9.796;2022-11-14T07:50:24;4.60;99.90
5901;DHT22;2976;49.764;9.796;2022-11-14T07:52:53;4.60;99.90
5901;DHT22;2976;49.764;9.796;2022-11-14T07:55:20;4.70;99.90
5901;DHT22;2976;49.764;9.796;2022-11-14T07:57:47;4.80;99.90
5901;DHT22;2976;49.764;9.796;2022-11-14T08:00:13;4.90;99.90
5901;DHT22;2976;49.764;9.796;2022-11-14T08:02:39;4.90;99.90
5901;DHT22;2976;49.764;9.796;2022-11-14T08:05:05;4.90;99.90
5901;DHT22;2976;49.764;9.796;2022-11-14T08:07:30;4.90;99.90
5901;DHT22;2976;49.764;9.796;2022-11-14T08:09:56;4.90;99.90
5901;DHT22;2976;49.764;9.796;2022-11-14T08:12:21;4.90;99.90
5901;DHT22;2976;49.764;9.796;2022-11-14T08:14:47;5.00;99.90
5901;DHT22;2976;49.764;9.796;2022-11-14T08:17:13;5.00;99.90
5901;DHT22;2976;49.764;9.796;2022-11-14T08:19:38;5.00;99.90
5901;DHT22;2976;49.764;9.796;2022-11-14T08:22:05;5.00;99.90
5901;DHT22;2976;49.764;9.796;2022-11-14T08:24:31;5.10;99.90
5901;DHT22;2976;49.764;9.796;2022-11-14T08:26:56;5.10;99.90
5901;DHT22;2976;49.764;9.796;2022-11-14T08:29:22;5.10;99.90
5901;DHT22;2976;49.764;9.796;2022-11-14T08:31:47;5.30;99.90
5901;DHT22;2976;49.764;9.796;2022-11-14T08:34:13;5.30;99.90
5901;DHT22;2976;49.764;9.796;2022-11-14T08:36:38;5.30;99.90
5901;DHT22;2976;49.764;9.796;2022-11-14T08:39:04;5.20;99.90
5901;DHT22;2976;49.764;9.796;2022-11-14T08:41:30;5.30;99.90
5901;DHT22;2976;49.764;9.796;2022-11-14T08:43:55;5.20;99.90
5901;DHT22;2976;49.764;9.796;2022-11-14T08:46:21;5.20;99.90
5901;DHT22;2976;49.764;9.796;2022-11-14T08:48:46;5.20;99.90
5901;DHT22;2976;49.764;9.796;2022-11-14T08:51:12;5.30;99.90
5901;DHT22;2976;49.764;9.796;2022-11-14T08:53:37;5.30;99.90
5901;DHT22;2976;49.764;9.796;2022-11-14T08:56:03;5.40;99.90
5901;DHT22;2976;49.764;9.796;2022-11-14T08:58:29;5.50;99.90
5901;DHT22;2976;49.764;9.796;2022-11-14T09:01:03;5.50;99.90
5901;DHT22;2976;49.764;9.796;2022-11-14T09:03:29;5.60;99.90
5901;DHT22;2976;49.764;9.796;2022-11-14T09:05:55;5.60;99.90
5901;DHT22;2976;49.764;9.796;2022-11-14T09:08:21;5.70;99.90
5901;DHT22;2976;49.764;9.796;2022-11-14T09:10:47;5.80;99.90
5901;DHT22;2976;49.764;9.796;2022-11-14T09:13:13;5.90;99.90
5901;DHT22;2976;49.764;9.796;2022-11-14T09:15:38;5.80;99.90
5901;DHT22;2976;49.764;9.796;2022-11-14T09:18:04;5.90;99.90
5901;DHT22;2976;49.764;9.796;2022-11-14T09:20:29;5.80;99.90
5901;DHT22;2976;49.764;9.796;2022-11-14T09:22:59;5.90;99.90
5901;DHT22;2976;49.764;9.796;2022-11-14T09:25:25;5.90;99.90
5901;DHT22;2976;49.764;9.796;2022-11-14T09:27:51;6.10;99.90
5901;DHT22;2976;49.764;9.796;2022-11-14T09:30:17;6.10;99.90
5901;DHT22;2976;49.764;9.796;2022-11-14T09:32:42;6.10;99.90
5901;DHT22;2976;49.764;9.796;2022-11-14T09:35:08;6.20;99.90
5901;DHT22;2976;49.764;9.796;2022-11-14T09:37:34;6.30;99.90
5901;DHT22;2976;49.764;9.796;2022-11-14T09:40:00;6.40;99.90
5901;DHT22;2976;49.764;9.796;2022-11-14T09:42:29;6.50;99.90
5901;DHT22;2976;49.764;9.796;2022-11-14T09:45:00;6.70;99.90
5901;DHT22;2976;49.764;9.796;2022-11-14T09:47:37;6.90;99.90
5901;DHT22;2976;49.764;9.796;2022-11-14T09:50:15;7.20;99.90
5901;DHT22;2976;49.764;9.796;2022-11-14T09:52:42;7.20;99.90
5901;DHT22;2976;49.764;9.796;2022-11-14T09:55:18;7.30;99.90
5901;DHT22;2976;49.764;9.796;2022-11-14T09:57:45;7.20;99.90
5901;DHT22;2976;49.764;9.796;2022-11-14T10:00:16;7.10;99.90
5901;DHT22;2976;49.764;9.796;2022-11-14T10:10:57;7.30;99.90
5901;DHT22;2976;49.764;9.796;2022-11-14T10:16:00;7.50;99.90
5901;DHT22;2976;49.764;9.796;2022-11-14T10:18:53;7.50;99.90
5901;DHT22;2976;49.764;9.796;2022-11-14T10:26:42;8.20;99.90
5901;DHT22;2976;49.764;9.796;2022-11-14T10:29:43;8.50;99.90
5901;DHT22;2976;49.764;9.796;2022-11-14T10:34:53;8.80;99.90
5901;DHT22;2976;49.764;9.796;2022-11-14T10:37:28;9.00;99.90
5901;DHT22;2976;49.764;9.796;2022-11-14T10:40:07;9.20;99.90
5901;DHT22;2976;49.764;9.796;2022-11-14T10:42:40;9.40;99.90
5901;DHT22;2976;49.764;9.796;2022-11-14T10:45:09;9.60;99.90
5901;DHT22;2976;49.764;9.796;2022-11-14T10:47:45;9.70;99.90
5901;DHT22;2976;49.764;9.796;2022-11-14T10:50:19;9.60;99.90
5901;DHT22;2976;49.764;9.796;2022-11-14T10:52:46;9.70;99.90
5901;DHT22;2976;49.764;9.796;2022-11-14T10:55:17;9.80;99.90
5901;DHT22;2976;49.764;9.796;2022-11-14T10:57:46;9.90;99.90
5901;DHT22;2976;49.764;9.796;2022-11-14T11:00:15;9.80;99.90
5901;DHT22;2976;49.764;9.796;2022-11-14T11:02:55;9.90;99.90
5901;DHT22;2976;49.764;9.796;2022-11-14T11:05:24;10.10;99.90
5901;DHT22;2976;49.764;9.796;2022-11-14T11:07:50;10.20;99.90
5901;DHT22;2976;49.764;9.796;2022-11-14T11:10:40;10.30;99.90
5901;DHT22;2976;49.764;9.796;2022-11-14T11:13:50;10.30;99.90
5901;DHT22;2976;49.764;9.796;2022-11-14T11:16:20;10.30;99.90
5901;DHT22;2976;49.764;9.796;2022-11-14T11:18:45;10.30;99.90
5901;DHT22;2976;49.764;9.796;2022-11-14T11:21:13;10.20;99.90
5901;DHT22;2976;49.764;9.796;2022-11-14T11:23:51;10.20;99.90
5901;DHT22;2976;49.764;9.796;2022-11-14T11:26:29;10.10;99.90
5901;DHT22;2976;49.764;9.796;2022-11-14T11:34:14;10.10;99.90
5901;DHT22;2976;49.764;9.796;2022-11-14T11:36:45;10.30;99.90
5901;DHT22;2976;49.764;9.796;2022-11-14T11:39:22;10.30;99.90
5901;DHT22;2976;49.764;9.796;2022-11-14T11:41:51;10.50;99.90
5901;DHT22;2976;49.764;9.796;2022-11-14T11:44:20;10.40;99.90
5901;DHT22;2976;49.764;9.796;2022-11-14T11:46:52;10.30;99.90
5901;DHT22;2976;49.764;9.796;2022-11-14T11:51:55;9.80;99.90
5901;DHT22;2976;49.764;9.796;2022-11-14T11:54:29;9.90;99.90
5901;DHT22;2976;49.764;9.796;2022-11-14T11:57:00;10.10;99.90
5901;DHT22;2976;49.764;9.796;2022-11-14T11:59:39;10.30;99.90
5901;DHT22;2976;49.764;9.796;2022-11-14T12:02:26;10.20;99.90
5901;DHT22;2976;49.764;9.796;2022-11-14T12:04:54;10.20;99.90
5901;DHT22;2976;49.764;9.796;2022-11-14T12:07:45;10.00;99.90
5901;DHT22;2976;49.764;9.796;2022-11-14T12:10:24;9.90;99.90
5901;DHT22;2976;49.764;9.796;2022-11-14T12:18:45;9.40;99.90
5901;DHT22;2976;49.764;9.796;2022-11-14T12:22:04;9.30;99.90
5901;DHT22;2976;49.764;9.796;2022-11-14T12:30:03;9.00;99.90
5901;DHT22;2976;49.764;9.796;2022-11-14T12:32:38;9.10;99.90
5901;DHT22;2976;49.764;9.796;2022-11-14T12:35:06;9.20;99.90
5901;DHT22;2976;49.764;9.796;2022-11-14T12:37:43;9.20;99.90
5901;DHT22;2976;49.764;9.796;2022-11-14T12:40:22;9.10;99.90
5901;DHT22;2976;49.764;9.796;2022-11-14T12:42:49;9.10;99.90
5901;DHT22;2976;49.764;9.796;2022-11-14T12:50:55;9.10;99.90
5901;DHT22;2976;49.764;9.796;2022-11-14T13:04:41;9.00;99.90
5901;DHT22;2976;49.764;9.796;2022-11-14T13:10:35;9.00;99.90
5901;DHT22;2976;49.764;9.796;2022-11-14T13:15:56;9.20;99.90
5901;DHT22;2976;49.764;9.796;2022-11-14T13:27:31;9.30;99.90
5901;DHT22;2976;49.764;9.796;2022-11-14T13:29:57;9.20;99.90
5901;DHT22;2976;49.764;9.796;2022-11-14T13:46:09;9.30;99.90
5901;DHT22;2976;49.764;9.796;2022-11-14T13:51:25;9.50;99.90
5901;DHT22;2976;49.764;9.796;2022-11-14T13:53:51;9.60;99.90
5901;DHT22;2976;49.764;9.796;2022-11-14T14:07:23;9.40;99.90
5901;DHT22;2976;49.764;9.796;2022-11-14T14:13:06;9.30;99.90
5901;DHT22;2976;49.764;9.796;2022-11-14T14:15:43;9.40;99.90
5901;DHT22;2976;49.764;9.796;2022-11-14T14:18:25;9.40;99.90
5901;DHT22;2976;49.764;9.796;2022-11-14T14:21:01;9.40;99.90
5901;DHT22;2976;49.764;9.796;2022-11-14T14:23:41;9.50;99.90
5901;DHT22;2976;49.764;9.796;2022-11-14T14:26:42;9.50;99.90
5901;DHT22;2976;49.764;9.796;2022-11-14T14:29:23;9.60;99.90
5901;DHT22;2976;49.764;9.796;2022-11-14T14:31:49;9.70;99.90
5901;DHT22;2976;49.764;9.796;2022-11-14T14:34:32;9.90;99.90
5901;DHT22;2976;49.764;9.796;2022-11-14T14:36:58;10.00;99.90
5901;DHT22;2976;49.764;9.796;2022-11-14T14:39:26;9.90;99.90
5901;DHT22;2976;49.764;9.796;2022-11-14T14:41:53;9.90;99.90
5901;DHT22;2976;49.764;9.796;2022-11-14T14:44:38;9.80;99.90
5901;DHT22;2976;49.764;9.796;2022-11-14T14:49:43;9.80;99.90
5901;DHT22;2976;49.764;9.796;2022-11-14T14:52:32;9.70;99.90
5901;DHT22;2976;49.764;9.796;2022-11-14T14:54:58;9.70;99.90
5901;DHT22;2976;49.764;9.796;2022-11-14T14:57:27;9.60;99.90
5901;DHT22;2976;49.764;9.796;2022-11-14T15:00:01;9.60;99.90
5901;DHT22;2976;49.764;9.796;2022-11-14T15:02:28;9.60;99.90
5901;DHT22;2976;49.764;9.796;2022-11-14T15:04:55;9.60;99.90
5901;DHT22;2976;49.764;9.796;2022-11-14T15:07:23;9.50;99.90
5901;DHT22;2976;49.764;9.796;2022-11-14T15:09:56;9.40;99.90
5901;DHT22;2976;49.764;9.796;2022-11-14T15:12:24;9.30;99.90
5901;DHT22;2976;49.764;9.796;2022-11-14T15:14:52;9.20;99.90
5901;DHT22;2976;49.764;9.796;2022-11-14T15:17:18;9.10;99.90
5901;DHT22;2976;49.764;9.796;2022-11-14T15:19:45;9.00;99.90
5901;DHT22;2976;49.764;9.796;2022-11-14T15:24:40;9.00;99.90
5901;DHT22;2976;49.764;9.796;2022-11-14T15:27:13;9.10;99.90
5901;DHT22;2976;49.764;9.796;2022-11-14T15:29:51;9.00;99.90
5901;DHT22;2976;49.764;9.796;2022-11-14T15:32:23;9.00;99.90
5901;DHT22;2976;49.764;9.796;2022-11-14T15:37:36;8.70;99.90
5901;DHT22;2976;49.764;9.796;2022-11-14T15:40:18;8.80;99.90
5901;DHT22;2976;49.764;9.796;2022-11-14T15:42:44;8.90;99.90
5901;DHT22;2976;49.764;9.796;2022-11-14T15:45:23;9.00;99.90
5901;DHT22;2976;49.764;9.796;2022-11-14T15:48:00;9.00;99.90
5901;DHT22;2976;49.764;9.796;2022-11-14T15:50:31;9.10;99.90
5901;DHT22;2976;49.764;9.796;2022-11-14T15:53:05;9.20;99.90
5901;DHT22;2976;49.764;9.796;2022-11-14T15:55:31;9.30;99.90
5901;DHT22;2976;49.764;9.796;2022-11-14T15:57:57;9.40;99.90
5901;DHT22;2976;49.764;9.796;2022-11-14T16:00:23;9.40;99.90
5901;DHT22;2976;49.764;9.796;2022-11-14T16:02:52;9.50;99.90
5901;DHT22;2976;49.764;9.796;2022-11-14T16:05:31;9.60;99.90
5901;DHT22;2976;49.764;9.796;2022-11-14T16:07:57;9.60;99.90
5901;DHT22;2976;49.764;9.796;2022-11-14T16:10:27;9.60;99.90
5901;DHT22;2976;49.764;9.796;2022-11-14T16:12:52;9.60;99.90
5901;DHT22;2976;49.764;9.796;2022-11-14T16:15:19;9.70;99.90
5901;DHT22;2976;49.764;9.796;2022-11-14T16:17:47;9.70;99.90
5901;DHT22;2976;49.764;9.796;2022-11-14T16:22:42;9.90;99.90
5901;DHT22;2976;49.764;9.796;2022-11-14T16:27:44;10.10;99.90
5901;DHT22;2976;49.764;9.796;2022-11-14T16:30:14;10.20;99.90
5901;DHT22;2976;49.764;9.796;2022-11-14T16:32:40;10.30;99.90
5901;DHT22;2976;49.764;9.796;2022-11-14T16:35:15;10.40;99.90
5901;DHT22;2976;49.764;9.796;2022-11-14T16:37:40;10.50;99.90
5901;DHT22;2976;49.764;9.796;2022-11-14T16:40:20;10.50;99.90
5901;DHT22;2976;49.764;9.796;2022-11-14T16:42:52;10.60;99.90
5901;DHT22;2976;49.764;9.796;2022-11-14T16:45:18;10.70;99.90
5901;DHT22;2976;49.764;9.796;2022-11-14T16:47:47;10.70;99.90
5901;DHT22;2976;49.764;9.796;2022-11-14T16:50:13;10.80;99.90
5901;DHT22;2976;49.764;9.796;2022-11-14T16:52:39;10.80;99.90
5901;DHT22;2976;49.764;9.796;2022-11-14T16:55:06;10.80;99.90
5901;DHT22;2976;49.764;9.796;2022-11-14T16:57:31;10.80;99.90
5901;DHT22;2976;49.764;9.796;2022-11-14T16:59:57;10.80;99.90
5901;DHT22;2976;49.764;9.796;2022-11-14T17:02:23;10.90;99.90
5901;DHT22;2976;49.764;9.796;2022-11-14T17:04:49;10.90;99.90
5901;DHT22;2976;49.764;9.796;2022-11-14T17:07:15;10.90;99.90
5901;DHT22;2976;49.764;9.796;2022-11-14T17:09:41;10.90;99.90
5901;DHT22;2976;49.764;9.796;2022-11-14T17:12:06;10.90;99.90
5901;DHT22;2976;49.764;9.796;2022-11-14T17:14:32;10.90;99.90
5901;DHT22;2976;49.764;9.796;2022-11-14T17:16:58;10.90;99.90
5901;DHT22;2976;49.764;9.796;2022-11-14T17:19:23;10.90;99.90
5901;DHT22;2976;49.764;9.796;2022-11-14T17:21:49;10.90;99.90
5901;DHT22;2976;49.764;9.796;2022-11-14T17:24:15;11.00;99.90
5901;DHT22;2976;49.764;9.796;2022-11-14T17:26:40;11.10;99.90
5901;DHT22;2976;49.764;9.796;2022-11-14T17:29:07;11.10;99.90
5901;DHT22;2976;49.764;9.796;2022-11-14T17:31:33;11.10;99.90
5901;DHT22;2976;49.764;9.796;2022-11-14T17:33:58;11.10;99.90
5901;DHT22;2976;49.764;9.796;2022-11-14T17:36:26;11.20;99.90
5901;DHT22;2976;49.764;9.796;2022-11-14T17:38:54;11.20;99.90
5901;DHT22;2976;49.764;9.796;2022-11-14T17:41:20;11.30;99.90
5901;DHT22;2976;49.764;9.796;2022-11-14T17:43:46;11.30;99.90
5901;DHT22;2976;49.764;9.796;2022-11-14T17:46:12;11.40;99.90
5901;DHT22;2976;49.764;9.796;2022-11-14T17:48:38;11.40;99.90
5901;DHT22;2976;49.764;9.796;2022-11-14T17:51:04;11.50;99.90
5901;DHT22;2976;49.764;9.796;2022-11-14T17:53:33;11.50;99.90
5901;DHT22;2976;49.764;9.796;2022-11-14T17:55:59;11.50;99.90
5901;DHT22;2976;49.764;9.796;2022-11-14T17:58:28;11.50;99.90
5901;DHT22;2976;49.764;9.796;2022-11-14T18:00:54;11.60;99.90
5901;DHT22;2976;49.764;9.796;2022-11-14T18:03:20;11.60;99.90
5901;DHT22;2976;49.764;9.796;2022-11-14T18:05:46;11.70;99.90
5901;DHT22;2976;49.764;9.796;2022-11-14T18:08:12;11.60;99.90
5901;DHT22;2976;49.764;9.796;2022-11-14T18:10:38;11.70;99.90
5901;DHT22;2976;49.764;9.796;2022-11-14T18:13:04;11.70;99.90
5901;DHT22;2976;49.764;9.796;2022-11-14T18:15:31;11.80;99.90
5901;DHT22;2976;49.764;9.796;2022-11-14T18:17:57;11.70;99.90